createdAt,value
2023-01-20T00:01:21.098Z,40.55
2023-01-20T00:03:48.466Z,43.22
2023-01-20T00:06:15.727Z,40.08
2023-01-20T00:08:43.135Z,40.20
2023-01-20T00:11:12.477Z,46.70
2023-01-20T00:13:40.005Z,47.72
2023-01-20T00:16:09.231Z,46.58
2023-01-20T00:18:37.389Z,44.42
2023-01-20T00:21:10.902Z,44.00
2023-01-20T00:23:39.451Z,49.10
2023-01-20T00:26:16.208Z,48.05
2023-01-20T00:28:44.435Z,53.50
2023-01-20T00:31:17.148Z,54.08
2023-01-20T00:33:45.339Z,50.67
2023-01-20T00:36:13.637Z,50.22
2023-01-20T00:38:40.886Z,45.78
2023-01-20T00:41:08.336Z,50.30
2023-01-20T00:43:36.487Z,51.25
2023-01-20T00:46:04.688Z,50.37
2023-01-20T00:48:32.531Z,45.42
2023-01-20T00:51:00.118Z,49.17
2023-01-20T00:53:27.412Z,50.50
2023-01-20T00:55:54.594Z,50.47
2023-01-20T00:58:21.812Z,47.83
2023-01-20T01:00:50.903Z,43.77
2023-01-20T01:03:18.458Z,42.85
2023-01-20T01:05:45.706Z,42.50
2023-01-20T01:08:13.915Z,42.78
2023-01-20T01:10:41.243Z,42.17
2023-01-20T01:13:08.950Z,43.80
2023-01-20T01:15:36.481Z,41.70
2023-01-20T01:18:04.397Z,44.50
2023-01-20T01:20:31.681Z,47.88
2023-01-20T01:22:59.029Z,44.72
2023-01-20T01:25:26.274Z,45.67
2023-01-20T01:27:53.424Z,43.75
2023-01-20T01:30:20.797Z,41.22
2023-01-20T01:32:48.232Z,50.03
2023-01-20T01:35:15.785Z,51.15
2023-01-20T01:37:43.365Z,48.30
2023-01-20T01:40:11.320Z,47.03
2023-01-20T01:42:38.703Z,44.95
2023-01-20T01:45:12.392Z,46.47
2023-01-20T01:47:56.994Z,46.20
2023-01-20T01:50:38.506Z,45.65
2023-01-20T01:53:07.786Z,48.60
2023-01-20T01:55:39.262Z,47.40
2023-01-20T01:58:08.226Z,45.35
2023-01-20T02:00:35.670Z,49.90
2023-01-20T02:03:03.176Z,47.00
2023-01-20T02:05:30.926Z,51.83
2023-01-20T02:07:59.654Z,51.53
2023-01-20T02:10:27.019Z,54.53
2023-01-20T02:12:54.803Z,62.17
2023-01-20T02:15:28.491Z,68.43
2023-01-20T02:18:05.652Z,71.10
2023-01-20T02:21:15.019Z,74.50
2023-01-20T02:23:45.143Z,83.80
2023-01-20T02:26:30.128Z,85.10
2023-01-20T02:29:10.623Z,103.32
2023-01-20T02:31:46.992Z,107.82
2023-01-20T02:34:29.141Z,125.10
2023-01-20T02:37:16.470Z,170.05
2023-01-20T02:39:46.670Z,161.47
2023-01-20T02:42:24.913Z,207.77
2023-01-20T02:45:09.865Z,169.35
2023-01-20T02:48:05.525Z,133.85
2023-01-20T02:50:42.909Z,175.53
2023-01-20T02:53:12.351Z,137.55
2023-01-20T02:55:48.808Z,172.48
2023-01-20T02:58:27.279Z,162.52
2023-01-20T03:01:20.792Z,155.63
2023-01-20T03:03:51.965Z,158.32
2023-01-20T03:06:24.387Z,145.95
2023-01-20T03:08:53.336Z,147.38
2023-01-20T03:11:20.892Z,146.00
2023-01-20T03:14:06.538Z,112.03
2023-01-20T03:16:34.199Z,130.80
2023-01-20T03:19:01.570Z,135.05
2023-01-20T03:21:29.138Z,105.32
2023-01-20T03:24:01.141Z,119.55
2023-01-20T03:26:30.331Z,89.13
2023-01-20T03:28:58.819Z,108.17
2023-01-20T03:31:44.927Z,105.97
2023-01-20T03:34:17.465Z,94.32
2023-01-20T03:36:45.933Z,85.78
2023-01-20T03:39:13.573Z,105.65
2023-01-20T03:42:04.636Z,97.57
2023-01-20T03:44:55.178Z,90.15
2023-01-20T03:47:48.773Z,92.78
2023-01-20T03:50:39.316Z,99.55
2023-01-20T03:53:27.184Z,102.95
2023-01-20T03:56:22.619Z,97.65
2023-01-20T03:58:52.486Z,87.93
2023-01-20T04:01:22.834Z,90.67
2023-01-20T04:03:53.360Z,89.63
2023-01-20T04:06:23.715Z,95.17
2023-01-20T04:09:06.783Z,79.73
2023-01-20T04:11:34.374Z,83.60
2023-01-20T04:14:02.286Z,85.13
2023-01-20T04:16:29.482Z,79.68
2023-01-20T04:18:56.779Z,85.32
2023-01-20T04:21:39.133Z,75.00
2023-01-20T04:24:23.582Z,73.17
2023-01-20T04:26:50.809Z,80.18
2023-01-20T04:29:18.168Z,82.50
2023-01-20T04:31:45.425Z,78.47
2023-01-20T04:34:15.368Z,85.60
2023-01-20T04:36:43.185Z,87.55
2023-01-20T04:39:10.535Z,84.30
2023-01-20T04:41:37.850Z,84.43
2023-01-20T04:44:05.091Z,86.85
2023-01-20T04:46:32.290Z,82.68
2023-01-20T04:48:59.473Z,80.17
2023-01-20T04:51:26.698Z,80.53
2023-01-20T04:53:57.536Z,74.40
2023-01-20T04:56:24.964Z,75.68
2023-01-20T04:58:52.753Z,82.05
2023-01-20T05:01:19.914Z,65.32
2023-01-20T05:03:47.121Z,68.70
2023-01-20T05:06:14.314Z,63.78
2023-01-20T05:08:41.606Z,79.93
2023-01-20T05:11:08.888Z,78.30
2023-01-20T05:13:39.162Z,82.55
2023-01-20T05:16:07.523Z,65.65
2023-01-20T05:18:35.400Z,85.85
2023-01-20T05:21:04.552Z,81.03
2023-01-20T05:23:31.768Z,89.50
2023-01-20T05:25:58.947Z,83.30
2023-01-20T05:28:26.170Z,82.00
2023-01-20T05:30:53.419Z,96.70
2023-01-20T05:33:20.716Z,102.97
2023-01-20T05:35:47.882Z,97.85
2023-01-20T05:38:15.066Z,103.83
2023-01-20T05:40:42.214Z,94.88
2023-01-20T05:43:10.273Z,103.53
2023-01-20T05:45:38.820Z,97.93
2023-01-20T05:48:06.428Z,73.85
2023-01-20T05:50:33.639Z,91.07
2023-01-20T05:53:00.877Z,95.43
2023-01-20T05:55:28.024Z,120.60
2023-01-20T05:57:55.211Z,120.73
2023-01-20T06:00:22.692Z,134.90
2023-01-20T06:02:49.900Z,119.80
2023-01-20T06:05:17.612Z,140.60
2023-01-20T06:07:45.047Z,101.97
2023-01-20T06:10:12.687Z,127.70
2023-01-20T06:12:39.851Z,123.55
2023-01-20T06:15:07.479Z,130.93
2023-01-20T06:17:34.947Z,94.25
2023-01-20T06:20:04.210Z,130.55
2023-01-20T06:22:31.414Z,118.35
2023-01-20T06:24:58.689Z,114.18
2023-01-20T06:27:25.835Z,125.93
2023-01-20T06:29:52.996Z,131.87
2023-01-20T06:32:20.192Z,83.55
2023-01-20T06:34:47.694Z,134.25
2023-01-20T06:37:14.943Z,107.60
2023-01-20T06:39:42.197Z,128.20
2023-01-20T06:42:11.025Z,133.15
2023-01-20T06:44:38.759Z,111.72
2023-01-20T06:47:05.944Z,135.82
2023-01-20T06:49:33.601Z,141.13
2023-01-20T06:52:00.806Z,149.73
2023-01-20T06:54:27.959Z,119.18
2023-01-20T06:56:55.099Z,109.07
2023-01-20T06:59:22.367Z,134.75
2023-01-20T07:01:49.775Z,116.45
2023-01-20T07:04:17.056Z,134.52
2023-01-20T07:06:44.234Z,126.97
2023-01-20T07:09:12.555Z,138.63
2023-01-20T07:11:40.359Z,143.80
2023-01-20T07:14:09.120Z,152.98
2023-01-20T07:16:36.702Z,143.70
2023-01-20T07:19:04.449Z,121.00
2023-01-20T07:21:31.604Z,149.27
2023-01-20T07:24:02.512Z,116.68
2023-01-20T07:26:30.308Z,128.70
2023-01-20T07:29:00.719Z,112.10
2023-01-20T07:31:29.414Z,135.15
2023-01-20T07:33:57.161Z,125.35
2023-01-20T07:36:25.024Z,122.70
2023-01-20T07:38:53.149Z,130.80
2023-01-20T07:41:21.159Z,123.28
2023-01-20T07:43:52.729Z,125.55
2023-01-20T07:46:20.908Z,116.20
2023-01-20T07:48:48.202Z,139.48
2023-01-20T07:51:16.574Z,139.88
2023-01-20T07:53:46.978Z,110.68
2023-01-20T07:56:17.100Z,112.35
2023-01-20T07:58:49.166Z,141.25
2023-01-20T08:01:18.404Z,129.20
2023-01-20T08:03:46.299Z,125.13
2023-01-20T08:06:15.959Z,126.60
2023-01-20T08:08:43.241Z,137.88
2023-01-20T08:11:13.767Z,113.40
2023-01-20T08:13:41.495Z,123.75
2023-01-20T08:16:11.172Z,93.78
2023-01-20T08:18:38.739Z,123.25
2023-01-20T08:21:26.778Z,131.00
2023-01-20T08:23:58.195Z,117.93
2023-01-20T08:26:27.791Z,116.17
2023-01-20T08:28:55.928Z,103.07
2023-01-20T08:31:24.661Z,108.53
2023-01-20T08:33:56.061Z,106.15
2023-01-20T08:36:29.752Z,110.18
2023-01-20T08:38:59.074Z,102.78
2023-01-20T08:41:29.177Z,112.45
2023-01-20T08:43:59.616Z,66.97
2023-01-20T08:46:27.440Z,101.57
2023-01-20T08:48:56.056Z,94.70
2023-01-20T08:51:29.234Z,90.65
2023-01-20T08:53:56.572Z,88.35
2023-01-20T08:56:23.852Z,117.70
2023-01-20T08:58:51.465Z,123.20
2023-01-20T09:01:21.287Z,123.00
2023-01-20T09:04:03.718Z,107.43
2023-01-20T09:06:42.953Z,100.95
2023-01-20T09:09:11.420Z,103.60
2023-01-20T09:11:39.956Z,117.00
2023-01-20T09:14:07.219Z,97.07
2023-01-20T09:16:34.426Z,110.80
2023-01-20T09:19:03.178Z,114.68
2023-01-20T09:21:30.447Z,106.50
2023-01-20T09:23:57.752Z,104.53
2023-01-20T09:26:35.201Z,106.80
2023-01-20T09:29:10.204Z,111.85
2023-01-20T09:31:39.952Z,104.20
2023-01-20T09:34:07.472Z,123.70
2023-01-20T09:36:34.744Z,104.53
2023-01-20T09:39:21.122Z,111.63
2023-01-20T09:42:08.293Z,105.45
2023-01-20T09:44:35.441Z,92.93
2023-01-20T09:47:21.382Z,119.40
2023-01-20T09:50:35.290Z,103.47
2023-01-20T09:53:32.640Z,95.32
2023-01-20T09:56:19.227Z,96.95
2023-01-20T09:58:55.415Z,87.82
2023-01-20T10:01:40.379Z,89.80
2023-01-20T10:04:29.785Z,78.60
2023-01-20T10:07:12.412Z,79.80
2023-01-20T10:10:02.942Z,81.25
2023-01-20T10:12:31.967Z,80.00
2023-01-20T10:15:12.557Z,73.57
2023-01-20T10:17:47.996Z,80.43
2023-01-20T10:20:35.582Z,68.77
2023-01-20T10:23:34.345Z,64.27
2023-01-20T10:26:06.476Z,53.67
2023-01-20T10:29:03.806Z,50.50
2023-01-20T10:31:40.019Z,65.63
2023-01-20T10:34:15.804Z,63.67
2023-01-20T10:36:46.055Z,73.43
2023-01-20T10:39:38.263Z,75.25
2023-01-20T10:42:12.215Z,68.33
2023-01-20T10:44:40.153Z,71.10
2023-01-20T10:47:23.991Z,75.83
2023-01-20T10:50:14.784Z,59.95
2023-01-20T10:52:58.979Z,51.78
2023-01-20T10:55:45.895Z,52.50
2023-01-20T10:58:30.750Z,45.08
2023-01-20T11:01:03.205Z,45.90
2023-01-20T11:03:35.987Z,50.17
2023-01-20T11:06:04.239Z,55.38
2023-01-20T11:08:31.531Z,50.40
2023-01-20T11:11:11.604Z,60.20
2023-01-20T11:13:38.933Z,56.42
2023-01-20T11:16:28.677Z,63.60
2023-01-20T11:19:07.353Z,59.83
2023-01-20T11:21:36.811Z,64.60
2023-01-20T11:24:41.522Z,56.47
2023-01-20T11:27:19.169Z,56.00
2023-01-20T11:29:51.618Z,60.33
2023-01-20T11:32:31.647Z,58.47
2023-01-20T11:35:00.033Z,46.45
2023-01-20T11:37:38.996Z,51.10
2023-01-20T11:40:27.688Z,42.67
2023-01-20T11:42:55.238Z,54.90
2023-01-20T11:45:30.330Z,49.55
2023-01-20T11:48:18.222Z,46.03
2023-01-20T11:50:46.907Z,38.80
2023-01-20T11:53:18.197Z,48.45
2023-01-20T11:55:55.171Z,52.15
2023-01-20T11:58:34.133Z,45.63
2023-01-20T12:01:07.050Z,39.63
2023-01-20T12:03:39.767Z,44.23
2023-01-20T12:06:30.925Z,94.28
2023-01-20T12:09:03.446Z,38.30
2023-01-20T12:11:35.067Z,42.10
2023-01-20T12:14:20.126Z,46.35
2023-01-20T12:16:56.095Z,46.22
2023-01-20T12:19:47.049Z,35.38
2023-01-20T12:22:24.108Z,36.92
2023-01-20T12:25:08.027Z,39.88
2023-01-20T12:27:48.132Z,47.25
2023-01-20T12:30:24.284Z,42.88
2023-01-20T12:32:51.596Z,36.50
2023-01-20T12:35:21.194Z,42.78
2023-01-20T12:38:07.238Z,37.77
2023-01-20T12:40:53.030Z,36.20
2023-01-20T12:44:02.309Z,38.00
2023-01-20T12:46:40.043Z,38.03
2023-01-20T12:49:35.132Z,37.90
2023-01-20T12:52:29.005Z,44.17
2023-01-20T12:55:09.504Z,41.10
2023-01-20T12:57:51.741Z,44.78
2023-01-20T13:00:54.951Z,38.47
2023-01-20T13:03:40.515Z,39.60
2023-01-20T13:06:10.654Z,40.88
2023-01-20T13:08:46.654Z,34.33
2023-01-20T13:11:39.631Z,36.53
2023-01-20T13:14:26.059Z,36.60
2023-01-20T13:17:19.571Z,37.90
2023-01-20T13:19:49.087Z,36.53
2023-01-20T13:22:20.234Z,37.13
2023-01-20T13:24:56.277Z,35.85
2023-01-20T13:27:27.724Z,37.17
2023-01-20T13:29:57.422Z,34.53
2023-01-20T13:32:45.674Z,35.83
2023-01-20T13:35:24.898Z,36.88
2023-01-20T13:37:54.695Z,37.05
2023-01-20T13:40:36.891Z,37.42
2023-01-20T13:43:04.580Z,38.47
2023-01-20T13:45:31.723Z,39.33
2023-01-20T13:48:08.293Z,37.95
2023-01-20T13:50:37.473Z,39.95
2023-01-20T13:53:11.876Z,38.72
2023-01-20T13:55:45.082Z,36.63
2023-01-20T13:58:17.367Z,37.72
2023-01-20T14:00:45.294Z,38.45
2023-01-20T14:03:33.564Z,40.35
2023-01-20T14:06:06.883Z,40.70
2023-01-20T14:08:42.905Z,40.38
2023-01-20T14:11:16.901Z,43.70
2023-01-20T14:13:52.370Z,46.07
2023-01-20T14:16:34.562Z,42.57
2023-01-20T14:19:27.031Z,45.38
2023-01-20T14:21:56.791Z,45.28
2023-01-20T14:24:34.965Z,45.88
2023-01-20T14:27:13.894Z,50.28
2023-01-20T14:29:41.160Z,50.03
2023-01-20T14:32:32.754Z,52.83
2023-01-20T14:35:00.497Z,55.97
2023-01-20T14:37:33.019Z,55.42
2023-01-20T14:40:22.958Z,52.60
2023-01-20T14:43:12.925Z,51.47
2023-01-20T14:45:43.708Z,46.47
2023-01-20T14:48:13.629Z,53.38
2023-01-20T14:50:48.679Z,55.55
2023-01-20T14:53:15.807Z,51.85
2023-01-20T14:55:55.823Z,51.08
2023-01-20T14:58:24.229Z,54.85
2023-01-20T15:00:54.299Z,53.17
2023-01-20T15:03:29.842Z,55.30
2023-01-20T15:06:07.056Z,55.40
2023-01-20T15:08:34.175Z,51.05
2023-01-20T15:11:11.863Z,52.95
2023-01-20T15:13:40.281Z,53.90
2023-01-20T15:16:07.584Z,50.60
2023-01-20T15:18:34.846Z,52.88
2023-01-20T15:21:26.739Z,52.95
2023-01-20T15:23:54.270Z,50.45
2023-01-20T15:26:28.315Z,47.30
2023-01-20T15:28:56.511Z,49.60
2023-01-20T15:31:24.350Z,47.10
2023-01-20T15:33:51.571Z,47.03
2023-01-20T15:36:26.701Z,49.13
2023-01-20T15:38:54.418Z,45.17
2023-01-20T15:41:22.395Z,45.88
2023-01-20T15:43:51.332Z,47.17
2023-01-20T15:46:19.193Z,46.20
2023-01-20T15:48:46.808Z,43.17
2023-01-20T15:51:16.578Z,46.03
2023-01-20T15:53:44.475Z,50.03
2023-01-20T15:56:14.376Z,45.35
2023-01-20T15:58:41.511Z,42.35
2023-01-20T16:01:12.524Z,41.90
2023-01-20T16:03:39.760Z,39.77
2023-01-20T16:06:12.374Z,39.45
2023-01-20T16:08:40.138Z,38.87
2023-01-20T16:11:07.905Z,41.97
2023-01-20T16:13:35.630Z,40.25
2023-01-20T16:16:03.519Z,41.05
2023-01-20T16:18:30.773Z,41.45
2023-01-20T16:20:58.031Z,43.70
2023-01-20T16:23:25.247Z,41.53
2023-01-20T16:25:52.539Z,40.40
2023-01-20T16:28:21.375Z,40.15
2023-01-20T16:30:48.798Z,43.95
2023-01-20T16:33:24.711Z,40.78
2023-01-20T16:35:54.409Z,40.92
2023-01-20T16:38:23.831Z,39.95
2023-01-20T16:41:12.609Z,41.03
2023-01-20T16:43:43.594Z,41.75
2023-01-20T16:46:18.218Z,41.58
2023-01-20T16:48:46.021Z,39.67
2023-01-20T16:51:19.737Z,38.03
2023-01-20T16:53:47.265Z,39.80
2023-01-20T16:56:19.632Z,38.50
2023-01-20T16:58:48.260Z,37.53
2023-01-20T17:01:20.755Z,36.97
2023-01-20T17:03:48.325Z,34.33
2023-01-20T17:06:18.170Z,35.95
2023-01-20T17:08:47.310Z,38.95
2023-01-20T17:11:22.265Z,37.10
2023-01-20T17:13:50.167Z,36.83
2023-01-20T17:16:18.477Z,38.07
2023-01-20T17:18:52.899Z,40.45
2023-01-20T17:21:22.039Z,38.83
2023-01-20T17:23:51.350Z,41.25
2023-01-20T17:26:19.541Z,40.58
2023-01-20T17:28:47.417Z,38.05
2023-01-20T17:31:14.931Z,38.78
2023-01-20T17:33:46.472Z,38.93
2023-01-20T17:36:13.797Z,39.90
2023-01-20T17:38:41.014Z,39.47
2023-01-20T17:41:08.768Z,38.15
2023-01-20T17:43:43.006Z,40.08
2023-01-20T17:46:28.120Z,42.87
2023-01-20T17:48:59.845Z,40.55
2023-01-20T17:51:29.112Z,45.30
2023-01-20T17:53:58.447Z,42.38
2023-01-20T17:56:26.147Z,38.72
2023-01-20T17:58:53.996Z,38.57
2023-01-20T18:01:24.332Z,38.40
2023-01-20T18:03:53.504Z,39.88
2023-01-20T18:06:22.718Z,41.90
2023-01-20T18:08:55.354Z,42.63
2023-01-20T18:11:23.945Z,44.10
2023-01-20T18:13:54.978Z,44.22
2023-01-20T18:16:24.516Z,44.93
2023-01-20T18:18:53.476Z,47.85
2023-01-20T18:21:23.970Z,52.55
2023-01-20T18:23:51.931Z,49.65
2023-01-20T18:26:21.845Z,46.30
2023-01-20T18:28:49.681Z,49.30
2023-01-20T18:31:19.766Z,47.78
2023-01-20T18:33:52.770Z,51.38
2023-01-20T18:36:28.856Z,50.70
2023-01-20T18:39:03.481Z,49.38
2023-01-20T18:41:36.404Z,50.72
2023-01-20T18:44:05.442Z,47.30
2023-01-20T18:46:33.359Z,49.60
2023-01-20T18:49:00.865Z,52.08
2023-01-20T18:51:29.880Z,48.17
2023-01-20T18:53:58.454Z,48.20
2023-01-20T18:56:26.419Z,49.80
2023-01-20T18:58:55.056Z,49.95
2023-01-20T19:01:34.969Z,49.87
2023-01-20T19:04:03.970Z,50.47
2023-01-20T19:06:34.900Z,48.63
2023-01-20T19:09:02.608Z,48.40
2023-01-20T19:11:32.558Z,48.72
2023-01-20T19:13:59.948Z,50.40
2023-01-20T19:16:32.538Z,51.53
2023-01-20T19:19:01.885Z,46.72
2023-01-20T19:21:32.407Z,49.20
2023-01-20T19:24:05.594Z,47.60
2023-01-20T19:26:35.559Z,47.35
2023-01-20T19:29:06.788Z,50.10
2023-01-20T19:31:37.402Z,50.22
2023-01-20T19:34:06.167Z,45.10
2023-01-20T19:36:34.182Z,50.08
2023-01-20T19:39:01.697Z,47.13
2023-01-20T19:41:33.069Z,46.83
2023-01-20T19:44:03.039Z,48.35
2023-01-20T19:46:35.153Z,46.60
2023-01-20T19:49:03.049Z,52.53
2023-01-20T19:51:31.438Z,47.83
2023-01-20T19:54:00.882Z,51.23
2023-01-20T19:56:33.791Z,52.72
2023-01-20T19:59:01.672Z,48.50
2023-01-20T20:01:33.720Z,51.53
2023-01-20T20:04:05.743Z,52.17
2023-01-20T20:06:45.092Z,50.47
2023-01-20T20:09:20.681Z,52.83
2023-01-20T20:11:48.308Z,52.33
2023-01-20T20:14:17.877Z,52.43
2023-01-20T20:16:45.654Z,53.33
2023-01-20T20:19:15.997Z,52.20
2023-01-20T20:21:43.829Z,54.17
2023-01-20T20:24:12.718Z,51.95
2023-01-20T20:26:40.755Z,51.20
2023-01-20T20:29:08.888Z,57.63
2023-01-20T20:31:37.564Z,52.00
2023-01-20T20:34:11.115Z,55.47
2023-01-20T20:36:39.622Z,53.97
2023-01-20T20:39:07.812Z,52.67
2023-01-20T20:41:36.490Z,56.63
2023-01-20T20:44:04.114Z,57.53
2023-01-20T20:46:31.949Z,52.90
2023-01-20T20:49:00.849Z,56.38
2023-01-20T20:51:30.905Z,57.67
2023-01-20T20:54:00.268Z,60.10
2023-01-20T20:56:31.598Z,56.47
2023-01-20T20:59:02.481Z,56.13
2023-01-20T21:01:33.270Z,56.23
2023-01-20T21:04:01.776Z,57.85
2023-01-20T21:06:30.199Z,56.30
2023-01-20T21:08:58.640Z,57.00
2023-01-20T21:11:26.088Z,58.50
2023-01-20T21:13:53.321Z,60.20
2023-01-20T21:16:23.022Z,62.00
2023-01-20T21:18:52.225Z,59.95
2023-01-20T21:21:20.344Z,64.22
2023-01-20T21:23:55.754Z,65.53
2023-01-20T21:26:24.474Z,61.85
2023-01-20T21:28:51.831Z,65.80
2023-01-20T21:31:21.447Z,62.65
2023-01-20T21:33:53.641Z,64.17
2023-01-20T21:36:22.861Z,65.15
2023-01-20T21:38:50.815Z,63.70
2023-01-20T21:41:18.922Z,66.20
2023-01-20T21:44:06.317Z,63.88
2023-01-20T21:46:38.475Z,67.85
2023-01-20T21:49:28.372Z,65.17
2023-01-20T21:52:14.947Z,62.35
2023-01-20T21:54:44.679Z,64.80
2023-01-20T21:57:12.048Z,61.30
2023-01-20T21:59:39.306Z,66.90
2023-01-20T22:02:07.712Z,61.05
2023-01-20T22:04:34.968Z,65.60
2023-01-20T22:07:02.121Z,62.67
2023-01-20T22:09:29.387Z,58.42
2023-01-20T22:11:56.544Z,56.90
2023-01-20T22:14:23.713Z,57.20
2023-01-20T22:16:50.995Z,53.83
2023-01-20T22:19:18.277Z,52.88
2023-01-20T22:21:45.475Z,50.65
2023-01-20T22:24:15.375Z,50.88
2023-01-20T22:26:45.300Z,54.07
2023-01-20T22:29:12.490Z,49.13
2023-01-20T22:31:39.817Z,50.83
2023-01-20T22:34:08.972Z,49.63
2023-01-20T22:36:37.158Z,50.05
2023-01-20T22:39:06.336Z,53.28
2023-01-20T22:41:34.002Z,51.72
2023-01-20T22:44:01.432Z,48.20
2023-01-20T22:46:29.636Z,49.88
2023-01-20T22:48:57.546Z,48.15
2023-01-20T22:51:27.199Z,51.50
2023-01-20T22:53:56.002Z,50.30
2023-01-20T22:56:26.022Z,53.10
2023-01-20T22:58:54.937Z,55.03
2023-01-20T23:01:24.650Z,55.65
2023-01-20T23:03:57.042Z,52.50
2023-01-20T23:06:25.558Z,52.63
2023-01-20T23:08:52.864Z,52.58
2023-01-20T23:11:21.563Z,51.42
2023-01-20T23:13:49.567Z,52.72
2023-01-20T23:16:19.248Z,55.67
2023-01-20T23:18:47.013Z,52.40
2023-01-20T23:21:15.510Z,52.65
2023-01-20T23:23:42.844Z,50.60
2023-01-20T23:26:14.786Z,51.35
2023-01-20T23:28:43.158Z,52.65
2023-01-20T23:31:12.810Z,50.75
2023-01-20T23:33:43.212Z,53.08
2023-01-20T23:36:17.322Z,54.35
2023-01-20T23:38:45.498Z,56.15
2023-01-20T23:41:14.045Z,55.97
2023-01-20T23:43:41.779Z,56.70
2023-01-20T23:46:09.624Z,55.60
2023-01-20T23:48:37.647Z,58.30
2023-01-20T23:51:06.291Z,62.03
2023-01-20T23:53:36.482Z,60.70
2023-01-20T23:56:06.499Z,58.20
2023-01-20T23:58:33.940Z,59.88
